createdAt,value
2023-06-01T00:00:39.400Z,17.30
2023-06-01T00:03:09.068Z,17.25
2023-06-01T00:05:37.276Z,17.19
2023-06-01T00:08:05.729Z,17.13
2023-06-01T00:10:33.910Z,17.08
2023-06-01T00:13:02.044Z,17.06
2023-06-01T00:15:30.165Z,17.07
2023-06-01T00:17:58.426Z,17.07
2023-06-01T00:20:30.302Z,17.13
2023-06-01T00:22:59.418Z,17.16
2023-06-01T00:25:27.620Z,17.11
2023-06-01T00:27:57.100Z,17.09
2023-06-01T00:30:25.505Z,17.08
2023-06-01T00:32:53.910Z,17.03
2023-06-01T00:35:23.403Z,16.87
2023-06-01T00:37:52.966Z,16.88
2023-06-01T00:40:21.135Z,16.93
2023-06-01T00:42:49.231Z,16.91
2023-06-01T00:45:17.305Z,16.84
2023-06-01T00:47:46.271Z,16.83
2023-06-01T00:50:14.954Z,16.78
2023-06-01T00:52:44.456Z,16.69
2023-06-01T00:55:16.819Z,16.65
2023-06-01T00:57:45.714Z,16.68
2023-06-01T01:00:14.525Z,16.66
2023-06-01T01:02:45.765Z,16.62
2023-06-01T01:05:13.911Z,16.57
2023-06-01T01:07:57.609Z,16.42
2023-06-01T01:10:33.920Z,16.39
2023-06-01T01:13:09.514Z,16.32
2023-06-01T01:15:45.858Z,16.28
2023-06-01T01:18:20.707Z,16.20
2023-06-01T01:20:59.502Z,16.20
2023-06-01T01:23:46.467Z,16.11
2023-06-01T01:26:29.390Z,16.11
2023-06-01T01:29:02.858Z,16.06
2023-06-01T01:31:33.138Z,16.02
2023-06-01T01:34:03.006Z,16.07
2023-06-01T01:36:31.725Z,16.02
2023-06-01T01:38:59.773Z,15.98
2023-06-01T01:41:27.800Z,15.98
2023-06-01T01:43:58.174Z,16.00
2023-06-01T01:46:29.942Z,15.97
2023-06-01T01:49:07.205Z,15.94
2023-06-01T01:51:40.558Z,15.92
2023-06-01T01:54:10.493Z,15.92
2023-06-01T01:56:39.829Z,15.86
2023-06-01T01:59:08.710Z,15.96
2023-06-01T02:01:41.934Z,15.88
2023-06-01T02:04:10.307Z,15.82
2023-06-01T02:06:39.084Z,15.75
2023-06-01T02:09:08.685Z,15.74
2023-06-01T02:11:37.439Z,15.78
2023-06-01T02:14:05.794Z,15.79
2023-06-01T02:16:34.041Z,15.83
2023-06-01T02:19:03.735Z,15.85
2023-06-01T02:21:33.477Z,15.79
2023-06-01T02:24:06.033Z,15.77
2023-06-01T02:26:34.203Z,15.73
2023-06-01T02:29:03.834Z,15.71
2023-06-01T02:31:31.995Z,15.74
2023-06-01T02:34:03.979Z,15.67
2023-06-01T02:36:33.929Z,15.67
2023-06-01T02:39:02.087Z,15.60
2023-06-01T02:41:30.251Z,15.53
2023-06-01T02:43:58.396Z,15.52
2023-06-01T02:46:26.636Z,15.48
2023-06-01T02:48:54.945Z,15.52
2023-06-01T02:51:23.321Z,15.52
2023-06-01T02:53:52.792Z,15.44
2023-06-01T02:56:20.818Z,15.50
2023-06-01T02:58:48.920Z,15.52
2023-06-01T03:01:17.323Z,15.48
2023-06-01T03:03:45.891Z,15.47
2023-06-01T03:06:14.411Z,15.45
2023-06-01T03:08:42.746Z,15.47
2023-06-01T03:11:12.263Z,15.54
2023-06-01T03:13:40.506Z,15.64
2023-06-01T03:16:08.783Z,15.80
2023-06-01T03:18:39.127Z,15.86
2023-06-01T03:21:07.870Z,15.93
2023-06-01T03:23:36.078Z,15.95
2023-06-01T03:26:05.555Z,16.04
2023-06-01T03:28:35.282Z,16.23
2023-06-01T03:31:04.022Z,16.35
2023-06-01T03:33:32.343Z,16.43
2023-06-01T03:36:00.513Z,16.54
2023-06-01T03:38:28.634Z,16.59
2023-06-01T03:40:56.810Z,16.71
2023-06-01T03:43:24.926Z,16.67
2023-06-01T03:45:54.636Z,16.74
2023-06-01T03:48:22.774Z,16.90
2023-06-01T03:50:51.070Z,17.07
2023-06-01T03:53:19.185Z,17.20
2023-06-01T03:55:49.449Z,17.37
2023-06-01T03:58:20.589Z,17.45
2023-06-01T04:00:48.689Z,17.53
2023-06-01T04:03:22.769Z,17.61
2023-06-01T04:05:52.615Z,17.65
2023-06-01T04:08:22.728Z,17.73
2023-06-01T04:10:50.801Z,17.89
2023-06-01T04:13:18.810Z,17.90
2023-06-01T04:15:48.052Z,17.94
2023-06-01T04:18:17.991Z,18.09
2023-06-01T04:20:49.424Z,18.08
2023-06-01T04:23:17.838Z,18.23
2023-06-01T04:25:46.395Z,18.41
2023-06-01T04:28:14.669Z,18.34
2023-06-01T04:30:45.404Z,18.33
2023-06-01T04:33:13.782Z,18.65
2023-06-01T04:35:45.529Z,18.60
2023-06-01T04:38:13.983Z,18.62
2023-06-01T04:40:43.118Z,18.88
2023-06-01T04:43:11.268Z,19.13
2023-06-01T04:45:41.915Z,19.19
2023-06-01T04:48:10.621Z,19.13
2023-06-01T04:50:38.786Z,19.45
2023-06-01T04:53:08.891Z,19.57
2023-06-01T04:55:37.095Z,19.56
2023-06-01T04:58:06.665Z,20.00
2023-06-01T05:00:35.664Z,20.21
2023-06-01T05:03:04.147Z,20.52
2023-06-01T05:05:34.284Z,20.87
2023-06-01T05:08:02.576Z,21.04
2023-06-01T05:10:32.910Z,21.13
2023-06-01T05:13:01.016Z,21.20
2023-06-01T05:15:29.940Z,21.35
2023-06-01T05:17:58.787Z,21.28
2023-06-01T05:20:27.876Z,21.25
2023-06-01T05:22:56.028Z,21.45
2023-06-01T05:25:24.407Z,21.78
2023-06-01T05:27:54.145Z,22.01
2023-06-01T05:30:22.347Z,22.03
2023-06-01T05:32:50.706Z,22.27
2023-06-01T05:35:19.282Z,22.36
2023-06-01T05:37:47.537Z,22.44
2023-06-01T05:40:16.001Z,22.50
2023-06-01T05:42:44.384Z,22.61
2023-06-01T05:45:13.827Z,22.50
2023-06-01T05:47:42.272Z,22.71
2023-06-01T05:50:11.660Z,22.64
2023-06-01T05:52:43.762Z,22.76
2023-06-01T05:55:12.122Z,22.94
2023-06-01T05:57:40.319Z,22.85
2023-06-01T06:00:11.287Z,22.65
2023-06-01T06:02:43.594Z,22.64
2023-06-01T06:05:12.174Z,22.85
2023-06-01T06:07:41.366Z,22.98
2023-06-01T06:10:11.202Z,22.84
2023-06-01T06:12:39.779Z,22.98
2023-06-01T06:15:12.248Z,22.89
2023-06-01T06:17:41.930Z,22.94
2023-06-01T06:20:13.213Z,23.00
2023-06-01T06:22:41.388Z,22.87
2023-06-01T06:25:10.541Z,22.89
2023-06-01T06:27:39.400Z,22.83
2023-06-01T06:30:09.021Z,22.73
2023-06-01T06:32:37.349Z,22.73
2023-06-01T06:35:07.352Z,22.82
2023-06-01T06:37:35.496Z,22.79
2023-06-01T06:40:04.946Z,22.84
2023-06-01T06:42:33.184Z,22.94
2023-06-01T06:45:01.338Z,22.84
2023-06-01T06:47:29.467Z,22.87
2023-06-01T06:49:58.405Z,22.74
2023-06-01T06:52:29.557Z,22.54
2023-06-01T06:54:57.944Z,22.40
2023-06-01T06:57:26.292Z,22.41
2023-06-01T06:59:54.574Z,22.55
2023-06-01T07:02:22.749Z,22.50
2023-06-01T07:04:51.193Z,22.65
2023-06-01T07:07:19.556Z,22.78
2023-06-01T07:09:49.351Z,22.98
2023-06-01T07:12:17.744Z,23.05
2023-06-01T07:14:46.265Z,22.89
2023-06-01T07:17:14.681Z,22.91
2023-06-01T07:19:44.611Z,23.05
2023-06-01T07:22:13.368Z,23.06
2023-06-01T07:24:41.633Z,23.11
2023-06-01T07:27:11.758Z,23.13
2023-06-01T07:29:39.977Z,23.31
2023-06-01T07:32:09.286Z,23.49
2023-06-01T07:34:37.933Z,23.64
2023-06-01T07:37:17.666Z,23.73
2023-06-01T07:39:46.740Z,23.80
2023-06-01T07:42:17.471Z,23.76
2023-06-01T07:44:45.869Z,23.79
2023-06-01T07:47:14.332Z,23.70
2023-06-01T07:49:42.558Z,23.69
2023-06-01T07:52:11.233Z,23.68
2023-06-01T07:54:39.694Z,23.62
2023-06-01T07:57:10.490Z,23.49
2023-06-01T07:59:40.718Z,23.49
2023-06-01T08:02:08.984Z,23.55
2023-06-01T08:04:39.165Z,23.64
2023-06-01T08:07:09.398Z,23.71
2023-06-01T08:09:38.626Z,23.33
2023-06-01T08:12:08.343Z,23.47
2023-06-01T08:14:36.846Z,23.78
2023-06-01T08:17:08.542Z,23.81
2023-06-01T08:19:37.674Z,23.78
2023-06-01T08:22:08.398Z,23.84
2023-06-01T08:24:37.514Z,23.96
2023-06-01T08:27:23.404Z,23.92
2023-06-01T08:29:55.251Z,24.07
2023-06-01T08:32:25.853Z,24.24
2023-06-01T08:34:54.188Z,24.47
2023-06-01T08:37:22.551Z,24.49
2023-06-01T08:39:50.957Z,24.48
2023-06-01T08:42:26.010Z,24.38
2023-06-01T08:44:56.681Z,24.25
2023-06-01T08:47:27.456Z,24.12
2023-06-01T08:49:58.068Z,24.27
2023-06-01T08:52:30.007Z,24.02
2023-06-01T08:55:00.169Z,24.01
2023-06-01T08:57:29.796Z,24.20
2023-06-01T08:59:58.130Z,24.31
2023-06-01T09:02:28.458Z,24.42
2023-06-01T09:04:56.695Z,24.32
2023-06-01T09:07:26.015Z,24.57
2023-06-01T09:09:54.289Z,24.60
2023-06-01T09:12:27.072Z,24.78
2023-06-01T09:15:10.404Z,24.91
2023-06-01T09:17:41.644Z,24.68
2023-06-01T09:20:15.584Z,24.77
2023-06-01T09:22:46.739Z,24.69
2023-06-01T09:25:16.861Z,24.68
2023-06-01T09:27:47.770Z,24.78
2023-06-01T09:30:16.847Z,24.77
2023-06-01T09:32:52.090Z,24.92
2023-06-01T09:35:40.159Z,25.24
2023-06-01T09:38:08.333Z,25.31
2023-06-01T09:40:36.902Z,25.58
2023-06-01T09:43:05.060Z,25.46
2023-06-01T09:45:34.268Z,25.47
2023-06-01T09:48:19.775Z,25.46
2023-06-01T09:50:48.002Z,25.26
2023-06-01T09:53:16.648Z,25.04
2023-06-01T09:56:08.682Z,24.80
2023-06-01T09:58:40.825Z,24.82
2023-06-01T10:01:13.447Z,24.96
2023-06-01T10:03:44.910Z,25.35
2023-06-01T10:06:14.382Z,25.36
2023-06-01T10:08:44.150Z,25.40
2023-06-01T10:11:12.436Z,25.36
2023-06-01T10:13:41.625Z,25.42
2023-06-01T10:16:09.929Z,25.37
2023-06-01T10:18:39.374Z,25.67
2023-06-01T10:21:10.848Z,25.99
2023-06-01T10:23:39.894Z,26.21
2023-06-01T10:26:13.698Z,26.06
2023-06-01T10:28:44.102Z,25.98
2023-06-01T10:31:39.452Z,26.21
2023-06-01T10:34:11.549Z,26.32
2023-06-01T10:37:18.348Z,25.90
2023-06-01T10:39:47.302Z,25.94
2023-06-01T10:42:39.165Z,26.10
2023-06-01T10:45:41.419Z,26.09
2023-06-01T10:48:12.017Z,26.07
2023-06-01T10:50:41.604Z,26.10
2023-06-01T10:53:31.825Z,26.25
2023-06-01T10:56:24.724Z,26.20
2023-06-01T10:59:19.040Z,26.37
2023-06-01T11:01:49.364Z,26.67
2023-06-01T11:04:17.884Z,26.89
2023-06-01T11:06:46.529Z,26.87
2023-06-01T11:09:17.745Z,26.29
2023-06-01T11:12:04.307Z,25.93
2023-06-01T11:14:34.777Z,26.10
2023-06-01T11:17:34.363Z,26.32
2023-06-01T11:20:12.501Z,26.71
2023-06-01T11:22:41.200Z,26.74
2023-06-01T11:25:16.214Z,26.67
2023-06-01T11:27:47.394Z,26.81
2023-06-01T11:30:21.831Z,27.00
2023-06-01T11:32:54.223Z,26.93
2023-06-01T11:35:24.209Z,26.60
2023-06-01T11:37:56.821Z,26.28
2023-06-01T11:40:30.607Z,26.26
2023-06-01T11:43:01.227Z,26.34
2023-06-01T11:45:29.907Z,26.51
2023-06-01T11:47:58.857Z,26.44
2023-06-01T11:50:28.775Z,26.64
2023-06-01T11:52:58.404Z,26.94
2023-06-01T11:55:28.117Z,26.98
2023-06-01T11:57:56.345Z,27.23
2023-06-01T12:00:24.539Z,27.11
2023-06-01T12:03:09.675Z,27.29
2023-06-01T12:05:44.371Z,27.45
2023-06-01T12:08:16.171Z,27.31
2023-06-01T12:10:48.001Z,26.96
2023-06-01T12:13:16.945Z,27.18
2023-06-01T12:15:45.540Z,26.98
2023-06-01T12:18:14.856Z,26.51
2023-06-01T12:20:44.473Z,26.35
2023-06-01T12:23:17.520Z,26.34
2023-06-01T12:25:54.778Z,26.53
2023-06-01T12:28:23.556Z,26.85
2023-06-01T12:30:52.229Z,27.01
2023-06-01T12:33:34.870Z,27.10
2023-06-01T12:36:03.326Z,27.32
2023-06-01T12:38:38.860Z,27.25
2023-06-01T12:41:12.949Z,26.79
2023-06-01T12:43:46.003Z,26.63
2023-06-01T12:46:20.886Z,26.62
2023-06-01T12:48:49.373Z,26.33
2023-06-01T12:51:18.134Z,26.54
2023-06-01T12:53:46.547Z,26.78
2023-06-01T12:56:16.822Z,26.56
2023-06-01T12:58:45.278Z,26.61
2023-06-01T13:01:13.663Z,26.92
2023-06-01T13:03:42.069Z,26.95
2023-06-01T13:06:10.828Z,26.65
2023-06-01T13:08:40.499Z,26.95
2023-06-01T13:13:43.988Z,27.38
2023-06-01T13:16:13.954Z,27.46
2023-06-01T13:18:42.133Z,27.58
2023-06-01T13:21:11.329Z,27.45
2023-06-01T13:23:39.671Z,27.59
2023-06-01T13:26:09.218Z,27.76
2023-06-01T13:28:37.762Z,27.91
2023-06-01T13:31:07.199Z,27.81
2023-06-01T13:33:35.345Z,27.20
2023-06-01T13:36:03.842Z,26.69
2023-06-01T13:38:32.858Z,26.48
2023-06-01T13:41:01.300Z,26.56
2023-06-01T13:43:29.611Z,26.70
2023-06-01T13:45:57.789Z,26.89
2023-06-01T13:48:27.304Z,27.19
2023-06-01T13:50:55.460Z,27.30
2023-06-01T13:53:23.559Z,26.90
2023-06-01T13:55:52.855Z,27.06
2023-06-01T13:58:20.952Z,26.88
2023-06-01T14:00:49.145Z,26.80
2023-06-01T14:03:18.686Z,26.84
2023-06-01T14:05:55.016Z,26.94
2023-06-01T14:08:25.525Z,26.91
2023-06-01T14:10:53.886Z,26.92
2023-06-01T14:13:22.169Z,26.51
2023-06-01T14:15:50.895Z,26.42
2023-06-01T14:18:19.364Z,26.56
2023-06-01T14:20:47.552Z,26.94
2023-06-01T14:23:17.096Z,27.22
2023-06-01T14:25:46.309Z,27.37
2023-06-01T14:28:14.594Z,27.22
2023-06-01T14:30:42.666Z,26.92
2023-06-01T14:33:11.601Z,26.76
2023-06-01T14:35:39.844Z,26.78
2023-06-01T14:38:08.014Z,26.72
2023-06-01T14:40:37.623Z,26.82
2023-06-01T14:43:05.818Z,26.87
2023-06-01T14:45:34.588Z,26.80
2023-06-01T14:48:02.778Z,26.72
2023-06-01T14:50:31.143Z,26.53
2023-06-01T14:53:00.933Z,26.39
2023-06-01T14:55:29.258Z,26.67
2023-06-01T14:57:59.023Z,26.55
2023-06-01T15:00:27.520Z,26.45
2023-06-01T15:02:56.063Z,26.36
2023-06-01T15:05:24.474Z,26.79
2023-06-01T15:07:53.024Z,26.78
2023-06-01T15:10:21.224Z,26.68
2023-06-01T15:12:50.008Z,26.55
2023-06-01T15:15:19.763Z,26.52
2023-06-01T15:17:47.858Z,26.53
2023-06-01T15:20:16.159Z,26.91
2023-06-01T15:22:44.317Z,26.98
2023-06-01T15:25:12.564Z,26.98
2023-06-01T15:27:41.018Z,27.13
2023-06-01T15:30:11.291Z,26.98
2023-06-01T15:32:40.759Z,26.72
2023-06-01T15:35:09.640Z,26.85
2023-06-01T15:37:38.120Z,27.19
2023-06-01T15:40:15.207Z,27.36
2023-06-01T15:42:43.681Z,27.24
2023-06-01T15:45:12.181Z,27.03
2023-06-01T15:47:41.763Z,26.99
2023-06-01T15:50:11.157Z,26.79
2023-06-01T15:52:39.254Z,26.68
2023-06-01T15:55:08.957Z,26.62
2023-06-01T15:57:37.359Z,26.82
2023-06-01T16:00:06.637Z,26.93
2023-06-01T16:02:35.054Z,26.86
2023-06-01T16:05:04.791Z,26.87
2023-06-01T16:07:33.075Z,26.74
2023-06-01T16:10:01.218Z,26.57
2023-06-01T16:12:29.669Z,26.57
2023-06-01T16:14:57.760Z,26.61
2023-06-01T16:17:25.982Z,26.38
2023-06-01T16:19:55.058Z,26.47
2023-06-01T16:22:24.700Z,26.58
2023-06-01T16:24:53.258Z,26.33
2023-06-01T16:27:21.305Z,26.19
2023-06-01T16:29:49.525Z,25.98
2023-06-01T16:32:17.557Z,25.84
2023-06-01T16:34:46.508Z,25.74
2023-06-01T16:37:14.813Z,25.70
2023-06-01T16:39:44.612Z,25.64
2023-06-01T16:42:12.735Z,25.70
2023-06-01T16:44:40.831Z,25.68
2023-06-01T16:47:09.363Z,25.71
2023-06-01T16:49:37.582Z,25.64
2023-06-01T16:52:06.410Z,25.58
2023-06-01T16:54:35.635Z,25.51
2023-06-01T16:57:05.984Z,25.37
2023-06-01T16:59:34.216Z,25.33
2023-06-01T17:02:02.590Z,25.23
2023-06-01T17:04:31.025Z,25.15
2023-06-01T17:06:59.651Z,25.07
2023-06-01T17:09:29.004Z,25.00
2023-06-01T17:11:57.386Z,24.87
2023-06-01T17:14:26.897Z,24.80
2023-06-01T17:16:55.270Z,24.73
2023-06-01T17:19:23.678Z,24.68
2023-06-01T17:21:52.606Z,24.55
2023-06-01T17:24:22.337Z,24.45
2023-06-01T17:26:51.248Z,24.39
2023-06-01T17:29:19.473Z,24.40
2023-06-01T17:31:49.121Z,24.32
2023-06-01T17:34:17.594Z,24.29
2023-06-01T17:36:45.668Z,24.31
2023-06-01T17:39:15.329Z,24.23
2023-06-01T17:41:44.067Z,24.17
2023-06-01T17:44:12.981Z,24.11
2023-06-01T17:46:41.211Z,24.04
2023-06-01T17:49:11.012Z,23.99
2023-06-01T17:51:41.301Z,23.92
2023-06-01T17:54:10.240Z,23.85
2023-06-01T17:56:38.517Z,23.77
2023-06-01T17:59:06.601Z,23.71
2023-06-01T18:01:34.814Z,23.63
2023-06-01T18:04:03.650Z,23.53
2023-06-01T18:06:33.376Z,23.44
2023-06-01T18:09:01.590Z,23.37
2023-06-01T18:11:30.416Z,23.27
2023-06-01T18:13:59.842Z,23.18
2023-06-01T18:16:28.616Z,23.12
2023-06-01T18:18:57.197Z,23.09
2023-06-01T18:21:25.773Z,23.08
2023-06-01T18:23:55.520Z,23.01
2023-06-01T18:26:23.738Z,22.94
2023-06-01T18:28:51.776Z,22.85
2023-06-01T18:31:19.891Z,22.82
2023-06-01T18:33:48.117Z,22.77
2023-06-01T18:36:16.460Z,22.71
2023-06-01T18:38:46.936Z,22.66
2023-06-01T18:41:17.378Z,22.61
2023-06-01T18:43:45.480Z,22.57
2023-06-01T18:46:14.462Z,22.52
2023-06-01T18:48:42.662Z,22.46
2023-06-01T18:51:11.832Z,22.41
2023-06-01T18:53:45.170Z,22.36
2023-06-01T18:56:15.476Z,22.30
2023-06-01T18:58:48.963Z,22.25
2023-06-01T19:01:20.042Z,22.17
2023-06-01T19:03:51.204Z,22.10
2023-06-01T19:06:19.532Z,22.03
2023-06-01T19:08:47.765Z,21.97
2023-06-01T19:11:16.423Z,21.92
2023-06-01T19:13:45.831Z,21.85
2023-06-01T19:16:16.937Z,21.81
2023-06-01T19:18:49.239Z,21.76
2023-06-01T19:21:19.963Z,21.69
2023-06-01T19:23:53.701Z,21.64
2023-06-01T19:26:30.831Z,21.60
2023-06-01T19:29:01.947Z,21.54
2023-06-01T19:31:34.709Z,21.48
2023-06-01T19:34:04.240Z,21.43
2023-06-01T19:36:58.347Z,21.34
2023-06-01T19:39:38.520Z,21.32
2023-06-01T19:42:10.706Z,21.28
2023-06-01T19:44:38.932Z,21.23
2023-06-01T19:47:09.934Z,21.21
2023-06-01T19:49:41.033Z,21.10
2023-06-01T19:52:11.549Z,21.02
2023-06-01T19:54:41.358Z,20.95
2023-06-01T19:57:09.616Z,20.90
2023-06-01T19:59:39.426Z,20.84
2023-06-01T20:02:25.629Z,20.78
2023-06-01T20:04:53.718Z,20.75
2023-06-01T20:07:23.914Z,20.71
2023-06-01T20:09:52.031Z,20.66
2023-06-01T20:12:20.173Z,20.64
2023-06-01T20:14:50.853Z,20.59
2023-06-01T20:17:20.496Z,20.55
2023-06-01T20:19:49.578Z,20.50
2023-06-01T20:22:18.067Z,20.49
2023-06-01T20:24:46.766Z,20.41
2023-06-01T20:27:16.683Z,20.32
2023-06-01T20:29:45.115Z,20.27
2023-06-01T20:32:13.382Z,20.25
2023-06-01T20:34:43.078Z,20.23
2023-06-01T20:37:11.994Z,20.20
2023-06-01T20:39:40.164Z,20.17
2023-06-01T20:42:08.955Z,20.10
2023-06-01T20:44:38.717Z,20.03
2023-06-01T20:47:07.438Z,19.99
2023-06-01T20:49:35.775Z,19.94
2023-06-01T20:52:06.096Z,19.93
2023-06-01T20:54:34.229Z,19.87
2023-06-01T20:57:02.339Z,19.82
2023-06-01T20:59:32.694Z,19.73
2023-06-01T21:02:02.505Z,19.67
2023-06-01T21:04:33.243Z,19.56
2023-06-01T21:07:02.564Z,19.48
2023-06-01T21:09:32.190Z,19.39
2023-06-01T21:12:03.150Z,19.38
2023-06-01T21:14:32.131Z,19.32
2023-06-01T21:17:00.523Z,19.25
2023-06-01T21:19:28.795Z,19.19
2023-06-01T21:21:57.608Z,19.15
2023-06-01T21:24:25.924Z,19.08
2023-06-01T21:26:56.959Z,19.02
2023-06-01T21:29:25.184Z,19.01
2023-06-01T21:31:53.374Z,18.92
2023-06-01T21:34:21.569Z,18.87
2023-06-01T21:36:50.865Z,18.76
2023-06-01T21:39:19.197Z,18.66
2023-06-01T21:41:47.333Z,18.59
2023-06-01T21:44:17.136Z,18.53
2023-06-01T21:46:45.454Z,18.53
2023-06-01T21:49:13.660Z,18.50
2023-06-01T21:51:42.084Z,18.51
2023-06-01T21:54:10.285Z,18.47
2023-06-01T21:56:38.577Z,18.49
2023-06-01T21:59:10.951Z,18.54
2023-06-01T22:01:40.924Z,18.55
2023-06-01T22:04:11.643Z,18.52
2023-06-01T22:06:40.418Z,18.45
2023-06-01T22:09:08.590Z,18.42
2023-06-01T22:11:36.848Z,18.46
2023-06-01T22:14:05.273Z,18.37
2023-06-01T22:16:33.536Z,18.33
2023-06-01T22:19:03.124Z,18.28
2023-06-01T22:21:32.903Z,18.25
2023-06-01T22:24:01.204Z,18.17
2023-06-01T22:26:29.425Z,18.12
2023-06-01T22:28:57.627Z,18.13
2023-06-01T22:31:25.850Z,18.12
2023-06-01T22:33:54.058Z,18.08
2023-06-01T22:36:24.428Z,18.04
2023-06-01T22:38:52.641Z,17.98
2023-06-01T22:41:22.289Z,17.95
2023-06-01T22:43:50.603Z,17.92
2023-06-01T22:46:18.900Z,17.87
2023-06-01T22:48:49.680Z,17.80
2023-06-01T22:51:18.342Z,17.78
2023-06-01T22:53:48.272Z,17.75
2023-06-01T22:56:16.554Z,17.79
2023-06-01T22:58:44.824Z,17.76
2023-06-01T23:01:13.210Z,17.72
2023-06-01T23:03:41.727Z,17.70
2023-06-01T23:06:10.130Z,17.70
2023-06-01T23:08:38.722Z,17.67
2023-06-01T23:11:09.914Z,17.74
2023-06-01T23:13:42.212Z,17.66
2023-06-01T23:16:13.919Z,17.60
2023-06-01T23:18:42.531Z,17.54
2023-06-01T23:21:14.436Z,17.53
2023-06-01T23:23:45.633Z,17.46
2023-06-01T23:26:16.073Z,17.50
2023-06-01T23:28:55.184Z,17.41
2023-06-01T23:31:23.507Z,17.37
2023-06-01T23:33:51.750Z,17.28
2023-06-01T23:36:20.028Z,17.20
2023-06-01T23:38:49.459Z,17.22
2023-06-01T23:41:19.139Z,17.24
2023-06-01T23:43:47.371Z,17.15
2023-06-01T23:46:15.624Z,17.13
2023-06-01T23:48:45.529Z,17.09
2023-06-01T23:51:13.799Z,17.12
2023-06-01T23:53:42.075Z,17.11
2023-06-01T23:56:10.360Z,17.11
2023-06-01T23:58:39.992Z,17.06
